sensor_id;sensor_type;location;lat;lon;timestamp;P1;durP1;ratioP1;P2;durP2;ratioP2
11510;SDS011;5812;48.864;9.190;2023-03-01T00:01:09;12.07;;;12.07;;
11510;SDS011;5812;48.864;9.190;2023-03-01T00:03:37;12.47;;;12.37;;
11510;SDS011;5812;48.864;9.190;2023-03-01T00:06:03;13.40;;;13.30;;
11510;SDS011;5812;48.864;9.190;2023-03-01T00:08:29;12.80;;;12.77;;
11510;SDS011;5812;48.864;9.190;2023-03-01T00:11:02;13.03;;;12.93;;
11510;SDS011;5812;48.864;9.190;2023-03-01T00:13:29;11.53;;;11.53;;
11510;SDS011;5812;48.864;9.190;2023-03-01T00:15:55;13.93;;;13.83;;
11510;SDS011;5812;48.864;9.190;2023-03-01T00:18:21;13.50;;;13.40;;
11510;SDS011;5812;48.864;9.190;2023-03-01T00:20:51;14.00;;;13.90;;
11510;SDS011;5812;48.864;9.190;2023-03-01T00:23:20;14.03;;;13.93;;
11510;SDS011;5812;48.864;9.190;2023-03-01T00:25:45;12.87;;;12.77;;
11510;SDS011;5812;48.864;9.190;2023-03-01T00:28:11;14.00;;;13.90;;
11510;SDS011;5812;48.864;9.190;2023-03-01T00:30:37;13.20;;;13.10;;
11510;SDS011;5812;48.864;9.190;2023-03-01T00:33:03;13.60;;;13.50;;
11510;SDS011;5812;48.864;9.190;2023-03-01T00:35:28;12.20;;;12.20;;
11510;SDS011;5812;48.864;9.190;2023-03-01T00:37:54;12.10;;;12.10;;
11510;SDS011;5812;48.864;9.190;2023-03-01T00:40:23;12.67;;;12.57;;
11510;SDS011;5812;48.864;9.190;2023-03-01T00:42:49;12.37;;;12.27;;
11510;SDS011;5812;48.864;9.190;2023-03-01T00:45:15;14.53;;;14.43;;
11510;SDS011;5812;48.864;9.190;2023-03-01T00:47:41;13.53;;;13.43;;
11510;SDS011;5812;48.864;9.190;2023-03-01T00:50:07;14.30;;;14.20;;
11510;SDS011;5812;48.864;9.190;2023-03-01T00:52:33;12.63;;;12.53;;
11510;SDS011;5812;48.864;9.190;2023-03-01T00:54:59;13.60;;;13.50;;
11510;SDS011;5812;48.864;9.190;2023-03-01T00:57:24;13.83;;;13.73;;
11510;SDS011;5812;48.864;9.190;2023-03-01T00:59:51;13.07;;;13.03;;
11510;SDS011;5812;48.864;9.190;2023-03-01T01:02:17;12.90;;;12.80;;
11510;SDS011;5812;48.864;9.190;2023-03-01T01:04:44;14.20;;;14.10;;
11510;SDS011;5812;48.864;9.190;2023-03-01T01:07:10;14.10;;;14.00;;
11510;SDS011;5812;48.864;9.190;2023-03-01T01:09:36;13.70;;;13.60;;
11510;SDS011;5812;48.864;9.190;2023-03-01T01:12:02;14.03;;;13.93;;
11510;SDS011;5812;48.864;9.190;2023-03-01T01:14:28;14.07;;;13.97;;
11510;SDS011;5812;48.864;9.190;2023-03-01T01:16:54;13.57;;;13.47;;
11510;SDS011;5812;48.864;9.190;2023-03-01T01:19:20;13.57;;;13.47;;
11510;SDS011;5812;48.864;9.190;2023-03-01T01:21:46;13.37;;;13.27;;
11510;SDS011;5812;48.864;9.190;2023-03-01T01:24:13;12.40;;;12.30;;
11510;SDS011;5812;48.864;9.190;2023-03-01T01:26:39;13.50;;;13.40;;
11510;SDS011;5812;48.864;9.190;2023-03-01T01:29:05;12.87;;;12.77;;
11510;SDS011;5812;48.864;9.190;2023-03-01T01:31:32;14.20;;;14.10;;
11510;SDS011;5812;48.864;9.190;2023-03-01T01:34:00;13.23;;;13.13;;
11510;SDS011;5812;48.864;9.190;2023-03-01T01:36:27;13.57;;;13.47;;
11510;SDS011;5812;48.864;9.190;2023-03-01T01:38:53;12.63;;;12.63;;
11510;SDS011;5812;48.864;9.190;2023-03-01T01:41:19;14.20;;;14.10;;
11510;SDS011;5812;48.864;9.190;2023-03-01T01:43:47;13.37;;;13.27;;
11510;SDS011;5812;48.864;9.190;2023-03-01T01:46:33;13.63;;;13.53;;
11510;SDS011;5812;48.864;9.190;2023-03-01T01:49:03;14.03;;;13.93;;
11510;SDS011;5812;48.864;9.190;2023-03-01T01:51:33;15.10;;;15.00;;
11510;SDS011;5812;48.864;9.190;2023-03-01T01:54:05;13.17;;;13.07;;
11510;SDS011;5812;48.864;9.190;2023-03-01T01:56:37;13.70;;;13.60;;
11510;SDS011;5812;48.864;9.190;2023-03-01T01:59:07;13.10;;;13.00;;
11510;SDS011;5812;48.864;9.190;2023-03-01T02:01:34;13.97;;;13.87;;
11510;SDS011;5812;48.864;9.190;2023-03-01T02:03:59;14.47;;;14.37;;
11510;SDS011;5812;48.864;9.190;2023-03-01T02:06:26;13.67;;;13.57;;
11510;SDS011;5812;48.864;9.190;2023-03-01T02:09:13;14.40;;;14.30;;
11510;SDS011;5812;48.864;9.190;2023-03-01T02:11:40;15.10;;;15.00;;
11510;SDS011;5812;48.864;9.190;2023-03-01T02:14:08;13.47;;;13.37;;
11510;SDS011;5812;48.864;9.190;2023-03-01T02:16:33;14.57;;;14.47;;
11510;SDS011;5812;48.864;9.190;2023-03-01T02:19:00;14.93;;;14.83;;
11510;SDS011;5812;48.864;9.190;2023-03-01T02:24:14;13.73;;;13.67;;
11510;SDS011;5812;48.864;9.190;2023-03-01T02:26:55;14.63;;;14.53;;
11510;SDS011;5812;48.864;9.190;2023-03-01T02:29:22;14.07;;;13.97;;
11510;SDS011;5812;48.864;9.190;2023-03-01T02:31:49;13.40;;;13.30;;
11510;SDS011;5812;48.864;9.190;2023-03-01T02:34:18;15.13;;;15.03;;
11510;SDS011;5812;48.864;9.190;2023-03-01T02:36:47;13.73;;;13.63;;
11510;SDS011;5812;48.864;9.190;2023-03-01T02:39:17;14.70;;;14.60;;
11510;SDS011;5812;48.864;9.190;2023-03-01T02:41:51;14.07;;;13.97;;
11510;SDS011;5812;48.864;9.190;2023-03-01T02:44:18;13.83;;;13.73;;
11510;SDS011;5812;48.864;9.190;2023-03-01T02:46:46;13.87;;;13.77;;
11510;SDS011;5812;48.864;9.190;2023-03-01T02:51:48;13.43;;;13.43;;
11510;SDS011;5812;48.864;9.190;2023-03-01T02:55:07;14.17;;;14.07;;
11510;SDS011;5812;48.864;9.190;2023-03-01T02:57:45;14.40;;;14.30;;
11510;SDS011;5812;48.864;9.190;2023-03-01T03:00:34;14.10;;;14.00;;
11510;SDS011;5812;48.864;9.190;2023-03-01T03:03:05;13.27;;;13.17;;
11510;SDS011;5812;48.864;9.190;2023-03-01T03:05:32;14.10;;;14.00;;
11510;SDS011;5812;48.864;9.190;2023-03-01T03:07:58;13.70;;;13.60;;
11510;SDS011;5812;48.864;9.190;2023-03-01T03:10:27;14.23;;;14.13;;
11510;SDS011;5812;48.864;9.190;2023-03-01T03:12:56;13.17;;;13.07;;
11510;SDS011;5812;48.864;9.190;2023-03-01T03:15:23;12.17;;;12.17;;
11510;SDS011;5812;48.864;9.190;2023-03-01T03:17:51;13.97;;;13.87;;
11510;SDS011;5812;48.864;9.190;2023-03-01T03:20:18;13.53;;;13.43;;
11510;SDS011;5812;48.864;9.190;2023-03-01T03:22:46;13.77;;;13.67;;
11510;SDS011;5812;48.864;9.190;2023-03-01T03:25:13;14.17;;;14.07;;
11510;SDS011;5812;48.864;9.190;2023-03-01T03:27:39;12.63;;;12.53;;
11510;SDS011;5812;48.864;9.190;2023-03-01T03:30:07;12.83;;;12.73;;
11510;SDS011;5812;48.864;9.190;2023-03-01T03:32:38;13.37;;;13.27;;
11510;SDS011;5812;48.864;9.190;2023-03-01T03:35:04;14.13;;;14.03;;
11510;SDS011;5812;48.864;9.190;2023-03-01T03:37:37;12.93;;;12.83;;
11510;SDS011;5812;48.864;9.190;2023-03-01T03:40:22;13.73;;;13.63;;
11510;SDS011;5812;48.864;9.190;2023-03-01T03:42:48;13.80;;;13.80;;
11510;SDS011;5812;48.864;9.190;2023-03-01T03:45:14;13.47;;;13.37;;
11510;SDS011;5812;48.864;9.190;2023-03-01T03:47:43;13.87;;;13.87;;
11510;SDS011;5812;48.864;9.190;2023-03-01T03:50:10;13.87;;;13.77;;
11510;SDS011;5812;48.864;9.190;2023-03-01T03:52:36;14.27;;;14.17;;
11510;SDS011;5812;48.864;9.190;2023-03-01T03:55:02;13.57;;;13.47;;
11510;SDS011;5812;48.864;9.190;2023-03-01T03:57:28;13.03;;;12.93;;
11510;SDS011;5812;48.864;9.190;2023-03-01T03:59:54;13.10;;;13.00;;
11510;SDS011;5812;48.864;9.190;2023-03-01T04:02:19;13.57;;;13.47;;
11510;SDS011;5812;48.864;9.190;2023-03-01T04:04:47;13.67;;;13.57;;
11510;SDS011;5812;48.864;9.190;2023-03-01T04:07:14;12.50;;;12.50;;
11510;SDS011;5812;48.864;9.190;2023-03-01T04:09:41;13.90;;;13.80;;
11510;SDS011;5812;48.864;9.190;2023-03-01T04:12:08;13.57;;;13.47;;
11510;SDS011;5812;48.864;9.190;2023-03-01T04:14:34;13.13;;;13.03;;
11510;SDS011;5812;48.864;9.190;2023-03-01T04:17:00;13.30;;;13.20;;
11510;SDS011;5812;48.864;9.190;2023-03-01T04:19:26;13.63;;;13.53;;
11510;SDS011;5812;48.864;9.190;2023-03-01T04:21:52;14.10;;;14.00;;
11510;SDS011;5812;48.864;9.190;2023-03-01T04:24:18;14.03;;;13.93;;
11510;SDS011;5812;48.864;9.190;2023-03-01T04:26:44;13.33;;;13.23;;
11510;SDS011;5812;48.864;9.190;2023-03-01T04:29:09;13.93;;;13.83;;
11510;SDS011;5812;48.864;9.190;2023-03-01T04:31:35;14.07;;;13.97;;
11510;SDS011;5812;48.864;9.190;2023-03-01T04:34:01;13.50;;;13.40;;
11510;SDS011;5812;48.864;9.190;2023-03-01T04:36:28;13.80;;;13.70;;
11510;SDS011;5812;48.864;9.190;2023-03-01T04:38:54;13.07;;;12.97;;
11510;SDS011;5812;48.864;9.190;2023-03-01T04:41:22;13.33;;;13.23;;
11510;SDS011;5812;48.864;9.190;2023-03-01T04:43:48;13.87;;;13.77;;
11510;SDS011;5812;48.864;9.190;2023-03-01T04:46:15;13.90;;;13.80;;
11510;SDS011;5812;48.864;9.190;2023-03-01T04:48:43;13.50;;;13.40;;
11510;SDS011;5812;48.864;9.190;2023-03-01T04:51:09;12.40;;;12.40;;
11510;SDS011;5812;48.864;9.190;2023-03-01T04:53:38;12.37;;;12.27;;
11510;SDS011;5812;48.864;9.190;2023-03-01T04:56:04;13.53;;;13.43;;
11510;SDS011;5812;48.864;9.190;2023-03-01T04:58:31;12.93;;;12.83;;
11510;SDS011;5812;48.864;9.190;2023-03-01T05:00:57;14.07;;;13.97;;
11510;SDS011;5812;48.864;9.190;2023-03-01T05:03:22;14.10;;;14.00;;
11510;SDS011;5812;48.864;9.190;2023-03-01T05:05:49;13.80;;;13.80;;
11510;SDS011;5812;48.864;9.190;2023-03-01T05:08:16;13.87;;;13.77;;
11510;SDS011;5812;48.864;9.190;2023-03-01T05:10:43;13.87;;;13.77;;
11510;SDS011;5812;48.864;9.190;2023-03-01T05:13:18;14.23;;;14.13;;
11510;SDS011;5812;48.864;9.190;2023-03-01T05:15:48;14.33;;;14.23;;
11510;SDS011;5812;48.864;9.190;2023-03-01T05:18:25;13.73;;;13.63;;
11510;SDS011;5812;48.864;9.190;2023-03-01T05:20:52;13.73;;;13.63;;
11510;SDS011;5812;48.864;9.190;2023-03-01T05:23:21;13.03;;;12.97;;
11510;SDS011;5812;48.864;9.190;2023-03-01T05:25:47;13.97;;;13.87;;
11510;SDS011;5812;48.864;9.190;2023-03-01T05:28:14;12.43;;;12.43;;
11510;SDS011;5812;48.864;9.190;2023-03-01T05:30:41;13.37;;;13.27;;
11510;SDS011;5812;48.864;9.190;2023-03-01T05:33:07;12.73;;;12.63;;
11510;SDS011;5812;48.864;9.190;2023-03-01T05:35:39;13.60;;;13.50;;
11510;SDS011;5812;48.864;9.190;2023-03-01T05:38:06;13.67;;;13.67;;
11510;SDS011;5812;48.864;9.190;2023-03-01T05:40:32;13.50;;;13.40;;
11510;SDS011;5812;48.864;9.190;2023-03-01T05:42:59;12.97;;;12.87;;
11510;SDS011;5812;48.864;9.190;2023-03-01T05:45:25;12.83;;;12.83;;
11510;SDS011;5812;48.864;9.190;2023-03-01T05:47:52;14.63;;;14.53;;
11510;SDS011;5812;48.864;9.190;2023-03-01T05:50:24;13.97;;;13.87;;
11510;SDS011;5812;48.864;9.190;2023-03-01T05:52:58;13.63;;;13.53;;
11510;SDS011;5812;48.864;9.190;2023-03-01T05:55:25;13.40;;;13.30;;
11510;SDS011;5812;48.864;9.190;2023-03-01T05:57:51;13.70;;;13.60;;
11510;SDS011;5812;48.864;9.190;2023-03-01T06:00:17;13.97;;;13.87;;
11510;SDS011;5812;48.864;9.190;2023-03-01T06:02:47;12.67;;;12.67;;
11510;SDS011;5812;48.864;9.190;2023-03-01T06:05:12;13.33;;;13.23;;
11510;SDS011;5812;48.864;9.190;2023-03-01T06:07:38;14.00;;;13.90;;
11510;SDS011;5812;48.864;9.190;2023-03-01T06:10:05;14.63;;;14.53;;
11510;SDS011;5812;48.864;9.190;2023-03-01T06:12:32;13.43;;;13.33;;
11510;SDS011;5812;48.864;9.190;2023-03-01T06:15:00;13.63;;;13.53;;
11510;SDS011;5812;48.864;9.190;2023-03-01T06:17:28;14.97;;;14.87;;
11510;SDS011;5812;48.864;9.190;2023-03-01T06:19:55;15.40;;;15.30;;
11510;SDS011;5812;48.864;9.190;2023-03-01T06:22:20;14.30;;;14.20;;
11510;SDS011;5812;48.864;9.190;2023-03-01T06:24:46;13.93;;;13.83;;
11510;SDS011;5812;48.864;9.190;2023-03-01T06:27:11;14.73;;;14.63;;
11510;SDS011;5812;48.864;9.190;2023-03-01T06:29:37;14.80;;;14.70;;
11510;SDS011;5812;48.864;9.190;2023-03-01T06:32:03;14.27;;;14.17;;
11510;SDS011;5812;48.864;9.190;2023-03-01T06:34:29;14.57;;;14.47;;
11510;SDS011;5812;48.864;9.190;2023-03-01T06:36:55;15.80;;;15.70;;
11510;SDS011;5812;48.864;9.190;2023-03-01T06:39:20;14.37;;;14.27;;
11510;SDS011;5812;48.864;9.190;2023-03-01T06:41:46;13.93;;;13.83;;
11510;SDS011;5812;48.864;9.190;2023-03-01T06:44:11;15.27;;;15.17;;
11510;SDS011;5812;48.864;9.190;2023-03-01T06:46:38;15.00;;;14.90;;
11510;SDS011;5812;48.864;9.190;2023-03-01T06:49:04;14.17;;;14.07;;
11510;SDS011;5812;48.864;9.190;2023-03-01T06:51:34;14.60;;;14.50;;
11510;SDS011;5812;48.864;9.190;2023-03-01T06:54:03;15.40;;;15.30;;
11510;SDS011;5812;48.864;9.190;2023-03-01T06:56:30;14.37;;;14.27;;
11510;SDS011;5812;48.864;9.190;2023-03-01T06:58:56;14.67;;;14.57;;
11510;SDS011;5812;48.864;9.190;2023-03-01T07:01:22;15.93;;;15.83;;
11510;SDS011;5812;48.864;9.190;2023-03-01T07:03:47;15.00;;;14.90;;
11510;SDS011;5812;48.864;9.190;2023-03-01T07:06:13;16.30;;;16.20;;
11510;SDS011;5812;48.864;9.190;2023-03-01T07:08:38;15.80;;;15.70;;
11510;SDS011;5812;48.864;9.190;2023-03-01T07:11:04;15.30;;;15.20;;
11510;SDS011;5812;48.864;9.190;2023-03-01T07:13:30;15.47;;;15.37;;
11510;SDS011;5812;48.864;9.190;2023-03-01T07:15:56;15.63;;;15.53;;
11510;SDS011;5812;48.864;9.190;2023-03-01T07:18:22;14.53;;;14.43;;
11510;SDS011;5812;48.864;9.190;2023-03-01T07:20:48;15.47;;;15.37;;
11510;SDS011;5812;48.864;9.190;2023-03-01T07:23:13;15.33;;;15.23;;
11510;SDS011;5812;48.864;9.190;2023-03-01T07:25:40;14.60;;;14.50;;
11510;SDS011;5812;48.864;9.190;2023-03-01T07:28:05;16.00;;;15.90;;
11510;SDS011;5812;48.864;9.190;2023-03-01T07:30:31;13.93;;;13.83;;
11510;SDS011;5812;48.864;9.190;2023-03-01T07:32:57;15.23;;;15.13;;
11510;SDS011;5812;48.864;9.190;2023-03-01T07:35:24;14.93;;;14.83;;
11510;SDS011;5812;48.864;9.190;2023-03-01T07:37:52;15.17;;;15.07;;
11510;SDS011;5812;48.864;9.190;2023-03-01T07:40:18;15.53;;;15.43;;
11510;SDS011;5812;48.864;9.190;2023-03-01T07:42:43;15.40;;;15.30;;
11510;SDS011;5812;48.864;9.190;2023-03-01T07:45:09;15.27;;;15.17;;
11510;SDS011;5812;48.864;9.190;2023-03-01T07:47:35;14.90;;;14.80;;
11510;SDS011;5812;48.864;9.190;2023-03-01T07:50:01;15.13;;;15.03;;
11510;SDS011;5812;48.864;9.190;2023-03-01T07:52:27;15.43;;;15.33;;
11510;SDS011;5812;48.864;9.190;2023-03-01T07:54:53;14.00;;;13.90;;
11510;SDS011;5812;48.864;9.190;2023-03-01T07:57:19;14.07;;;13.97;;
11510;SDS011;5812;48.864;9.190;2023-03-01T07:59:44;14.40;;;14.30;;
11510;SDS011;5812;48.864;9.190;2023-03-01T08:02:10;14.80;;;14.70;;
11510;SDS011;5812;48.864;9.190;2023-03-01T08:04:36;14.10;;;14.00;;
11510;SDS011;5812;48.864;9.190;2023-03-01T08:07:03;13.63;;;13.53;;
11510;SDS011;5812;48.864;9.190;2023-03-01T08:09:30;14.47;;;14.37;;
11510;SDS011;5812;48.864;9.190;2023-03-01T08:11:56;14.13;;;14.03;;
11510;SDS011;5812;48.864;9.190;2023-03-01T08:14:24;12.97;;;12.87;;
11510;SDS011;5812;48.864;9.190;2023-03-01T08:16:50;14.73;;;14.63;;
11510;SDS011;5812;48.864;9.190;2023-03-01T08:19:16;14.33;;;14.23;;
11510;SDS011;5812;48.864;9.190;2023-03-01T08:21:41;14.60;;;14.50;;
11510;SDS011;5812;48.864;9.190;2023-03-01T08:24:07;14.17;;;14.07;;
11510;SDS011;5812;48.864;9.190;2023-03-01T08:26:35;15.17;;;15.07;;
11510;SDS011;5812;48.864;9.190;2023-03-01T08:29:01;14.90;;;14.80;;
11510;SDS011;5812;48.864;9.190;2023-03-01T08:31:34;14.60;;;14.50;;
11510;SDS011;5812;48.864;9.190;2023-03-01T08:34:03;14.80;;;14.70;;
11510;SDS011;5812;48.864;9.190;2023-03-01T08:36:32;15.30;;;15.20;;
11510;SDS011;5812;48.864;9.190;2023-03-01T08:39:00;14.43;;;14.33;;
11510;SDS011;5812;48.864;9.190;2023-03-01T08:41:26;14.30;;;14.20;;
11510;SDS011;5812;48.864;9.190;2023-03-01T08:43:52;14.67;;;14.57;;
11510;SDS011;5812;48.864;9.190;2023-03-01T08:46:23;12.77;;;12.67;;
11510;SDS011;5812;48.864;9.190;2023-03-01T08:48:52;13.67;;;13.57;;
11510;SDS011;5812;48.864;9.190;2023-03-01T08:51:18;14.80;;;14.70;;
11510;SDS011;5812;48.864;9.190;2023-03-01T08:53:44;14.00;;;13.90;;
11510;SDS011;5812;48.864;9.190;2023-03-01T08:56:11;12.50;;;12.47;;
11510;SDS011;5812;48.864;9.190;2023-03-01T08:58:37;13.73;;;13.63;;
11510;SDS011;5812;48.864;9.190;2023-03-01T09:01:08;14.27;;;14.17;;
11510;SDS011;5812;48.864;9.190;2023-03-01T09:03:34;14.57;;;14.47;;
11510;SDS011;5812;48.864;9.190;2023-03-01T09:06:01;15.23;;;15.13;;
11510;SDS011;5812;48.864;9.190;2023-03-01T09:08:28;13.50;;;13.40;;
11510;SDS011;5812;48.864;9.190;2023-03-01T09:10:54;14.73;;;14.63;;
11510;SDS011;5812;48.864;9.190;2023-03-01T09:13:19;14.77;;;14.67;;
11510;SDS011;5812;48.864;9.190;2023-03-01T09:15:45;14.80;;;14.70;;
11510;SDS011;5812;48.864;9.190;2023-03-01T09:18:10;13.90;;;13.80;;
11510;SDS011;5812;48.864;9.190;2023-03-01T09:20:36;13.83;;;13.73;;
11510;SDS011;5812;48.864;9.190;2023-03-01T09:23:01;14.43;;;14.33;;
11510;SDS011;5812;48.864;9.190;2023-03-01T09:25:27;12.67;;;12.67;;
11510;SDS011;5812;48.864;9.190;2023-03-01T09:27:53;14.50;;;14.40;;
11510;SDS011;5812;48.864;9.190;2023-03-01T09:30:20;14.10;;;14.00;;
11510;SDS011;5812;48.864;9.190;2023-03-01T09:32:46;12.30;;;12.30;;
11510;SDS011;5812;48.864;9.190;2023-03-01T09:35:12;14.13;;;14.03;;
11510;SDS011;5812;48.864;9.190;2023-03-01T09:37:37;13.23;;;13.13;;
11510;SDS011;5812;48.864;9.190;2023-03-01T09:40:05;13.70;;;13.60;;
11510;SDS011;5812;48.864;9.190;2023-03-01T09:42:32;13.63;;;13.60;;
11510;SDS011;5812;48.864;9.190;2023-03-01T09:45:33;13.60;;;13.50;;
11510;SDS011;5812;48.864;9.190;2023-03-01T09:48:02;14.73;;;14.63;;
11510;SDS011;5812;48.864;9.190;2023-03-01T09:50:38;14.43;;;14.33;;
11510;SDS011;5812;48.864;9.190;2023-03-01T09:53:07;14.13;;;14.03;;
11510;SDS011;5812;48.864;9.190;2023-03-01T09:59:04;13.47;;;13.37;;
11510;SDS011;5812;48.864;9.190;2023-03-01T10:04:45;13.30;;;13.20;;
11510;SDS011;5812;48.864;9.190;2023-03-01T10:10:26;12.67;;;12.57;;
11510;SDS011;5812;48.864;9.190;2023-03-01T10:12:56;13.23;;;13.23;;
11510;SDS011;5812;48.864;9.190;2023-03-01T10:15:34;13.73;;;13.73;;
11510;SDS011;5812;48.864;9.190;2023-03-01T10:18:06;14.03;;;14.03;;
11510;SDS011;5812;48.864;9.190;2023-03-01T10:23:11;14.33;;;14.23;;
11510;SDS011;5812;48.864;9.190;2023-03-01T10:28:19;12.77;;;12.67;;
11510;SDS011;5812;48.864;9.190;2023-03-01T10:30:48;13.67;;;13.57;;
11510;SDS011;5812;48.864;9.190;2023-03-01T10:33:17;13.63;;;13.53;;
11510;SDS011;5812;48.864;9.190;2023-03-01T10:35:44;13.93;;;13.83;;
11510;SDS011;5812;48.864;9.190;2023-03-01T10:38:11;12.93;;;12.83;;
11510;SDS011;5812;48.864;9.190;2023-03-01T10:40:50;13.67;;;13.67;;
11510;SDS011;5812;48.864;9.190;2023-03-01T10:43:24;13.00;;;12.90;;
11510;SDS011;5812;48.864;9.190;2023-03-01T10:45:52;13.10;;;13.10;;
11510;SDS011;5812;48.864;9.190;2023-03-01T10:48:21;11.97;;;11.97;;
11510;SDS011;5812;48.864;9.190;2023-03-01T10:53:27;12.60;;;12.60;;
11510;SDS011;5812;48.864;9.190;2023-03-01T10:56:01;12.20;;;12.20;;
11510;SDS011;5812;48.864;9.190;2023-03-01T10:58:29;11.30;;;11.30;;
11510;SDS011;5812;48.864;9.190;2023-03-01T11:01:00;11.73;;;11.73;;
11510;SDS011;5812;48.864;9.190;2023-03-01T11:03:31;10.93;;;10.93;;
11510;SDS011;5812;48.864;9.190;2023-03-01T11:13:34;11.73;;;11.73;;
11510;SDS011;5812;48.864;9.190;2023-03-01T11:16:02;11.53;;;11.53;;
11510;SDS011;5812;48.864;9.190;2023-03-01T11:18:32;10.20;;;10.20;;
11510;SDS011;5812;48.864;9.190;2023-03-01T11:20:59;10.40;;;10.40;;
11510;SDS011;5812;48.864;9.190;2023-03-01T11:23:27;11.00;;;11.00;;
11510;SDS011;5812;48.864;9.190;2023-03-01T11:25:55;10.63;;;10.63;;
11510;SDS011;5812;48.864;9.190;2023-03-01T11:28:23;10.30;;;10.30;;
11510;SDS011;5812;48.864;9.190;2023-03-01T11:30:53;10.35;;;10.35;;
11510;SDS011;5812;48.864;9.190;2023-03-01T11:41:47;11.13;;;11.13;;
11510;SDS011;5812;48.864;9.190;2023-03-01T11:44:21;11.25;;;11.25;;
11510;SDS011;5812;48.864;9.190;2023-03-01T11:47:05;10.98;;;10.98;;
11510;SDS011;5812;48.864;9.190;2023-03-01T11:49:53;10.23;;;10.23;;
11510;SDS011;5812;48.864;9.190;2023-03-01T12:01:12;11.07;;;11.07;;
11510;SDS011;5812;48.864;9.190;2023-03-01T12:09:18;11.20;;;11.20;;
11510;SDS011;5812;48.864;9.190;2023-03-01T12:23:16;10.43;;;10.43;;
11510;SDS011;5812;48.864;9.190;2023-03-01T12:28:49;10.65;;;10.65;;
11510;SDS011;5812;48.864;9.190;2023-03-01T12:34:08;12.45;;;12.45;;
11510;SDS011;5812;48.864;9.190;2023-03-01T12:50:53;10.32;;;10.32;;
11510;SDS011;5812;48.864;9.190;2023-03-01T12:53:32;10.73;;;10.73;;
11510;SDS011;5812;48.864;9.190;2023-03-01T12:56:02;11.07;;;11.07;;
11510;SDS011;5812;48.864;9.190;2023-03-01T12:59:01;11.35;;;11.35;;
11510;SDS011;5812;48.864;9.190;2023-03-01T13:11:59;11.80;;;11.80;;
11510;SDS011;5812;48.864;9.190;2023-03-01T13:16:54;10.88;;;10.88;;
11510;SDS011;5812;48.864;9.190;2023-03-01T13:21:48;10.82;;;10.82;;
11510;SDS011;5812;48.864;9.190;2023-03-01T13:34:53;11.60;;;11.60;;
11510;SDS011;5812;48.864;9.190;2023-03-01T13:37:21;11.95;;;11.95;;
11510;SDS011;5812;48.864;9.190;2023-03-01T13:39:54;11.57;;;11.57;;
11510;SDS011;5812;48.864;9.190;2023-03-01T13:42:29;11.73;;;11.73;;
11510;SDS011;5812;48.864;9.190;2023-03-01T13:44:56;10.75;;;10.75;;
11510;SDS011;5812;48.864;9.190;2023-03-01T13:47:22;11.95;;;11.95;;
11510;SDS011;5812;48.864;9.190;2023-03-01T13:49:49;11.57;;;11.57;;
11510;SDS011;5812;48.864;9.190;2023-03-01T13:52:36;12.02;;;12.02;;
11510;SDS011;5812;48.864;9.190;2023-03-01T13:55:06;12.18;;;12.18;;
11510;SDS011;5812;48.864;9.190;2023-03-01T13:57:39;12.43;;;12.43;;
11510;SDS011;5812;48.864;9.190;2023-03-01T14:00:07;11.43;;;11.43;;
11510;SDS011;5812;48.864;9.190;2023-03-01T14:05:35;12.50;;;12.50;;
11510;SDS011;5812;48.864;9.190;2023-03-01T14:08:05;12.15;;;12.15;;
11510;SDS011;5812;48.864;9.190;2023-03-01T14:10:50;12.70;;;12.70;;
11510;SDS011;5812;48.864;9.190;2023-03-01T14:13:37;11.97;;;11.97;;
11510;SDS011;5812;48.864;9.190;2023-03-01T14:19:23;12.80;;;12.80;;
11510;SDS011;5812;48.864;9.190;2023-03-01T14:24:29;11.60;;;11.60;;
11510;SDS011;5812;48.864;9.190;2023-03-01T14:26:58;12.27;;;12.20;;
11510;SDS011;5812;48.864;9.190;2023-03-01T14:29:26;13.33;;;13.33;;
11510;SDS011;5812;48.864;9.190;2023-03-01T14:34:50;12.50;;;12.50;;
11510;SDS011;5812;48.864;9.190;2023-03-01T14:37:18;12.07;;;12.07;;
11510;SDS011;5812;48.864;9.190;2023-03-01T14:39:49;12.70;;;12.70;;
11510;SDS011;5812;48.864;9.190;2023-03-01T14:42:15;11.90;;;11.90;;
11510;SDS011;5812;48.864;9.190;2023-03-01T14:44:43;13.07;;;13.07;;
11510;SDS011;5812;48.864;9.190;2023-03-01T14:47:12;12.73;;;12.63;;
11510;SDS011;5812;48.864;9.190;2023-03-01T14:49:40;12.20;;;12.20;;
11510;SDS011;5812;48.864;9.190;2023-03-01T14:52:07;12.47;;;12.47;;
11510;SDS011;5812;48.864;9.190;2023-03-01T14:54:46;12.30;;;12.30;;
11510;SDS011;5812;48.864;9.190;2023-03-01T14:57:18;12.63;;;12.63;;
11510;SDS011;5812;48.864;9.190;2023-03-01T14:59:49;12.20;;;12.20;;
11510;SDS011;5812;48.864;9.190;2023-03-01T15:02:23;11.57;;;11.57;;
11510;SDS011;5812;48.864;9.190;2023-03-01T15:04:57;13.93;;;13.93;;
11510;SDS011;5812;48.864;9.190;2023-03-01T15:07:33;11.90;;;11.90;;
11510;SDS011;5812;48.864;9.190;2023-03-01T15:10:01;12.40;;;12.40;;
11510;SDS011;5812;48.864;9.190;2023-03-01T15:14:57;12.80;;;12.80;;
11510;SDS011;5812;48.864;9.190;2023-03-01T15:17:28;13.23;;;13.13;;
11510;SDS011;5812;48.864;9.190;2023-03-01T15:20:01;12.17;;;12.17;;
11510;SDS011;5812;48.864;9.190;2023-03-01T15:22:29;12.40;;;12.40;;
11510;SDS011;5812;48.864;9.190;2023-03-01T15:24:55;12.27;;;12.20;;
11510;SDS011;5812;48.864;9.190;2023-03-01T15:27:24;12.47;;;12.47;;
11510;SDS011;5812;48.864;9.190;2023-03-01T15:29:55;12.90;;;12.90;;
11510;SDS011;5812;48.864;9.190;2023-03-01T15:34:50;13.17;;;13.17;;
11510;SDS011;5812;48.864;9.190;2023-03-01T15:40:16;12.20;;;12.20;;
11510;SDS011;5812;48.864;9.190;2023-03-01T15:42:56;11.87;;;11.87;;
11510;SDS011;5812;48.864;9.190;2023-03-01T15:45:27;12.20;;;12.20;;
11510;SDS011;5812;48.864;9.190;2023-03-01T15:47:55;13.20;;;13.20;;
11510;SDS011;5812;48.864;9.190;2023-03-01T15:50:24;12.10;;;12.00;;
11510;SDS011;5812;48.864;9.190;2023-03-01T15:52:52;11.73;;;11.73;;
11510;SDS011;5812;48.864;9.190;2023-03-01T15:55:19;12.63;;;12.53;;
11510;SDS011;5812;48.864;9.190;2023-03-01T15:57:45;11.50;;;11.50;;
11510;SDS011;5812;48.864;9.190;2023-03-01T16:00:13;12.83;;;12.73;;
11510;SDS011;5812;48.864;9.190;2023-03-01T16:02:40;11.97;;;11.97;;
11510;SDS011;5812;48.864;9.190;2023-03-01T16:05:26;13.47;;;13.37;;
11510;SDS011;5812;48.864;9.190;2023-03-01T16:07:53;11.60;;;11.60;;
11510;SDS011;5812;48.864;9.190;2023-03-01T16:10:19;12.37;;;12.30;;
11510;SDS011;5812;48.864;9.190;2023-03-01T16:12:45;11.70;;;11.70;;
11510;SDS011;5812;48.864;9.190;2023-03-01T16:15:13;11.67;;;11.67;;
11510;SDS011;5812;48.864;9.190;2023-03-01T16:17:45;12.67;;;12.57;;
11510;SDS011;5812;48.864;9.190;2023-03-01T16:20:11;12.30;;;12.23;;
11510;SDS011;5812;48.864;9.190;2023-03-01T16:22:40;12.60;;;12.60;;
11510;SDS011;5812;48.864;9.190;2023-03-01T16:25:10;12.17;;;12.07;;
11510;SDS011;5812;48.864;9.190;2023-03-01T16:27:37;12.23;;;12.13;;
11510;SDS011;5812;48.864;9.190;2023-03-01T16:30:04;14.60;;;14.50;;
11510;SDS011;5812;48.864;9.190;2023-03-01T16:32:30;12.77;;;12.67;;
11510;SDS011;5812;48.864;9.190;2023-03-01T16:34:56;13.07;;;13.00;;
11510;SDS011;5812;48.864;9.190;2023-03-01T16:37:22;13.07;;;13.07;;
11510;SDS011;5812;48.864;9.190;2023-03-01T16:39:47;11.57;;;11.57;;
11510;SDS011;5812;48.864;9.190;2023-03-01T16:42:15;12.90;;;12.90;;
11510;SDS011;5812;48.864;9.190;2023-03-01T16:44:41;12.23;;;12.23;;
11510;SDS011;5812;48.864;9.190;2023-03-01T16:47:07;11.83;;;11.83;;
11510;SDS011;5812;48.864;9.190;2023-03-01T16:49:33;12.27;;;12.23;;
11510;SDS011;5812;48.864;9.190;2023-03-01T16:51:58;11.90;;;11.90;;